Flight Track Log - Related Links

Times and Time Zones

All times are in EDT time to prevent confusion due to time zone crossing. See the CHH7330 flight status page for this flight to view local times or setup timezone preferences in your user account.

Time Position Orientation Groundspeed Altitude Reporting Facility
EDT Latitude Longitude Course Direction KTS MPH feet Rate Location/Type
Sat 01:06:00 PM 33.6805 119.0956 204° Southwest  Level Estimated
Sat 01:07:00 PM 33.5838 119.0434 204° Southwest  Level Estimated
Sat 01:07:59 PM 32.3260 118.6260 204° Southwest 465 535 27,600  Level FlightAware ADS-B
Sat 01:08:00 PM 33.4870 118.9914 204° Southwest  Level Estimated
Sat 01:08:36 PM 32.2620 118.6460 165° South 465 535 27,600  Level FlightAware ADS-B
Sat 01:09:38 PM 32.1530 118.6810 165° South 465 535 27,600  Level FlightAware ADS-B
Sat 01:10:14 PM 32.0890 118.7010 165° South 465 535 27,600  Level FlightAware ADS-B
Sat 01:10:50 PM 32.0260 118.7210 165° South 465 535 27,600  Level FlightAware ADS-B
Sat 01:11:35 PM 31.9460 118.7460 165° South 465 535 27,600 -116 Level FlightAware ADS-B
Sat 01:14:00 PM 31.7164 118.6121 206° Southwest  Level Estimated
Sat 01:15:00 PM 31.6214 118.5569 206° Southwest  Level Estimated
Sat 01:16:00 PM 31.5263 118.5017 206° Southwest  Level Estimated
Sat 01:17:00 PM 31.4312 118.4467 206° Southwest  Level Estimated
Sat 01:18:00 PM 31.3361 118.3919 206° Southwest  Level Estimated
Sat 01:19:00 PM 31.2410 118.3371 206° Southwest  Level Estimated
Sat 01:20:00 PM 31.1459 118.2824 206° Southwest  Level Estimated
Sat 01:21:00 PM 31.0507 118.2279 206° Southwest  Level Estimated
Sat 01:22:00 PM 30.9555 118.1734 206° Southwest  Level Estimated
Sat 01:23:00 PM 30.8603 118.1191 206° Southwest  Level Estimated
Sat 01:24:00 PM 30.7650 118.0649 206° Southwest  Level Estimated
Sat 01:25:00 PM 30.6697 118.0107 206° Southwest  Level Estimated
Sat 01:26:00 PM 30.5744 117.9567 206° Southwest  Level Estimated
Sat 01:27:00 PM 30.4791 117.9028 206° Southwest  Level Estimated
Sat 01:28:00 PM 30.3838 117.8490 206° Southwest  Level Estimated
Sat 01:29:00 PM 30.2885 117.7953 206° Southwest  Level Estimated
Sat 01:30:00 PM 30.1931 117.7417 206° Southwest  Level Estimated
Sat 01:31:00 PM 30.0977 117.6882 206° Southwest  Level Estimated
Sat 01:32:00 PM 30.0023 117.6349 206° Southwest  Level Estimated
Sat 01:33:00 PM 29.9068 117.5816 206° Southwest  Level Estimated
Sat 01:34:00 PM 29.8113 117.5284 206° Southwest  Level Estimated
Sat 01:35:00 PM 29.7159 117.4753 206° Southwest  Level Estimated
Sat 01:36:00 PM 29.6203 117.4223 206° Southwest  Level Estimated
Sat 01:37:00 PM 29.5248 117.3695 206° Southwest  Level Estimated
Sat 01:38:00 PM 29.4293 117.3167 206° Southwest  Level Estimated
Sat 01:39:00 PM 29.3337 117.2640 206° Southwest  Level Estimated
Sat 01:40:00 PM 29.2381 117.2114 206° Southwest  Level Estimated
Sat 01:41:00 PM 29.1425 117.1589 206° Southwest  Level Estimated
Sat 01:42:00 PM 29.0469 117.1066 206° Southwest  Level Estimated
Sat 01:43:00 PM 28.9512 117.0543 206° Southwest  Level Estimated
Sat 01:44:00 PM 28.8556 117.0021 206° Southwest  Level Estimated
Sat 01:45:00 PM 28.7599 116.9500 206° Southwest  Level Estimated
Sat 01:46:00 PM 28.6642 116.8980 205° Southwest  Level Estimated
Sat 01:47:00 PM 28.5684 116.8461 205° Southwest  Level Estimated
Sat 01:48:00 PM 28.4727 116.7943 205° Southwest  Level Estimated
Sat 01:49:00 PM 28.3769 116.7425 205° Southwest  Level Estimated
Sat 01:50:00 PM 28.2811 116.6909 205° Southwest  Level Estimated
Sat 01:51:00 PM 28.1853 116.6394 205° Southwest  Level Estimated
Sat 01:52:00 PM 28.0895 116.5879 205° Southwest  Level Estimated
Sat 01:53:00 PM 27.9936 116.5366 205° Southwest  Level Estimated
Sat 01:54:00 PM 27.8978 116.4853 205° Southwest  Level Estimated
Sat 01:55:00 PM 27.8019 116.4342 205° Southwest  Level Estimated
Sat 01:56:00 PM 27.7059 116.3831 205° Southwest  Level Estimated
Sat 01:57:00 PM 27.6100 116.3321 205° Southwest  Level Estimated
Sat 01:58:00 PM 27.5141 116.2812 205° Southwest  Level Estimated
Sat 01:59:00 PM 27.4181 116.2304 205° Southwest  Level Estimated
Sat 02:00:00 PM 27.3221 116.1796 205° Southwest  Level Estimated
Sat 02:01:00 PM 27.2262 116.1290 205° Southwest  Level Estimated
Sat 02:02:00 PM 27.1301 116.0785 205° Southwest  Level Estimated
Sat 02:03:00 PM 27.0341 116.0280 205° Southwest  Level Estimated
Sat 02:04:00 PM 26.9380 115.9776 205° Southwest  Level Estimated
Sat 02:05:00 PM 26.8420 115.9274 205° Southwest  Level Estimated
Sat 02:06:00 PM 26.7459 115.8772 205° Southwest  Level Estimated
Sat 02:07:00 PM 26.6498 115.8270 205° Southwest  Level Estimated
Sat 02:08:00 PM 26.5537 115.7770 205° Southwest  Level Estimated
Sat 02:09:00 PM 26.4575 115.7271 205° Southwest  Level Estimated
Sat 02:10:00 PM 26.3614 115.6772 205° Southwest  Level Estimated
Sat 02:11:00 PM 26.2652 115.6274 205° Southwest  Level Estimated
Sat 02:12:00 PM 26.1690 115.5777 205° Southwest  Level Estimated
Sat 02:13:00 PM 26.0728 115.5281 205° Southwest  Level Estimated
Sat 02:14:00 PM 25.9766 115.4786 205° Southwest  Level Estimated
Sat 02:15:00 PM 25.8803 115.4291 205° Southwest  Level Estimated
Sat 02:16:00 PM 25.7841 115.3797 205° Southwest  Level Estimated
Sat 02:17:00 PM 25.6878 115.3304 205° Southwest  Level Estimated
Sat 02:18:00 PM 25.5915 115.2812 205° Southwest  Level Estimated
Sat 02:19:00 PM 25.4952 115.2321 205° Southwest  Level Estimated
Sat 02:20:00 PM 25.3988 115.1830 205° Southwest  Level Estimated
Sat 02:21:00 PM 25.3025 115.1340 205° Southwest  Level Estimated
Sat 02:22:00 PM 25.2062 115.0851 205° Southwest  Level Estimated
Sat 02:23:00 PM 25.1098 115.0363 205° Southwest  Level Estimated
Sat 02:23:11 PM 24.5730 113.8770 205° Southwest 407 468 19,200  Level FlightAware ADS-B
Sat 02:23:52 PM 24.4960 113.8880 173° South 391 450 18,500 -988 Descending FlightAware ADS-B
Sat 02:24:00 PM 25.0134 114.9876 205° Southwest  Level Estimated
Sat 02:24:36 PM 24.4180 113.9000 172° South 383 441 17,800  Level FlightAware ADS-B
Sat 02:25:22 PM 24.3390 113.8990 181° South 368 423 17,000 -978 Descending FlightAware ADS-B
Sat 02:26:08 PM 24.2630 113.8770 195° South 368 423 16,300 -608 Descending FlightAware ADS-B
Sat 02:26:41 PM 24.2160 113.8640 194° South 368 423 16,200 -71 Descending FlightAware ADS-B
Sat 02:27:32 PM 24.1450 113.8440 194° South 368 423 16,200 -1,373 Level FlightAware ADS-B
Sat 02:28:04 PM 24.0740 113.8220 196° South 351 404 14,300 -1,756 Descending FlightAware ADS-B
Sat 02:28:54 PM 23.9970 113.8000 195° South 349 402 13,800 -326 Descending FlightAware ADS-B
Sat 02:29:36 PM 23.9290 113.7810 194° South 348 400 13,800  Level FlightAware ADS-B
Sat 02:30:18 PM 23.8640 113.7620 195° South 346 398 13,800  Level FlightAware ADS-B
Sat 02:30:59 PM 23.8010 113.7440 195° South 346 398 13,800  Level FlightAware ADS-B
Sat 02:31:42 PM 23.7330 113.7250 194° South 348 400 13,800  Level FlightAware ADS-B
Sat 02:32:22 PM 23.6710 113.7070 195° South 348 400 13,800  Level FlightAware ADS-B
Sat 02:33:04 PM 23.6040 113.6880 195° South 348 400 13,800  Level FlightAware ADS-B
Sat 02:33:36 PM 23.5550 113.6740 195° South 348 400 13,800  Level FlightAware ADS-B
Sat 02:34:18 PM 23.4890 113.6550 195° South 347 399 13,800  Level FlightAware ADS-B
Sat 02:34:58 PM 23.4330 113.6390 195° South 316 364 13,800  Level FlightAware ADS-B
Sat 02:35:42 PM 23.3680 113.6210 194° South 313 360 13,800 -571 Level FlightAware ADS-B
Sat 02:36:22 PM 23.3130 113.6050 195° South 311 358 13,000 -1,350 Descending FlightAware ADS-B
Sat 02:37:02 PM 23.2570 113.5890 195° South 304 350 12,000 -1,425 Descending FlightAware ADS-B
Sat 02:37:42 PM 23.2030 113.5740 194° South 297 342 11,100 -1,443 Descending FlightAware ADS-B
Sat 02:38:21 PM 23.1520 113.5600 194° South 294 338 10,100 -1,522 Descending FlightAware ADS-B
Sat 02:38:49 PM 23.1150 113.5490 195° South 293 337 9,400 -1,368 Descending FlightAware ADS-B
Sat 02:39:18 PM 23.0770 113.5390 194° South 286 329 8,800 -1,368 Descending FlightAware ADS-B
Sat 02:39:46 PM 23.0420 113.5290 195° South 283 326 8,100 -1,500 Descending FlightAware ADS-B
Sat 02:40:14 PM 23.0050 113.5180 195° South 277 319 7,400 -1,286 Descending FlightAware ADS-B
Sat 02:40:42 PM 22.9710 113.5090 194° South 260 299 6,900 -1,111 Descending FlightAware ADS-B
Sat 02:41:08 PM 22.9440 113.5170 165° South 254 292 6,400 -1,350 Descending FlightAware ADS-B
Sat 02:41:22 PM 22.9330 113.5310 130° Southeast 248 285 6,000 -1,429 Descending FlightAware ADS-B
Sat 02:41:50 PM 22.9190 113.5620 116° Southeast 224 258 5,400 -1,227 Descending FlightAware ADS-B
Sat 02:42:06 PM 22.9120 113.5780 115° Southeast 216 249 5,100 -955 Descending FlightAware ADS-B
Sat 02:42:34 PM 22.9000 113.6040 117° Southeast 205 236 4,700 -857 Descending FlightAware ADS-B
Sat 02:43:02 PM 22.8890 113.6300 115° Southeast 203 234 4,300 -682 Descending FlightAware ADS-B
Sat 02:43:18 PM 22.8810 113.6430 124° Southeast 198 228 4,200 -533 Descending FlightAware ADS-B
Sat 02:43:47 PM 22.8650 113.6650 128° Southeast 196 226 3,900 -536 Descending FlightAware ADS-B
Sat 02:44:14 PM 22.8440 113.6810 145° Southeast 189 217 3,700 -453 Descending FlightAware ADS-B
Sat 02:44:40 PM 22.8250 113.6910 154° Southeast 176 203 3,500 -429 Descending FlightAware ADS-B
Sat 02:45:10 PM 22.8050 113.7020 153° Southeast 160 184 3,300 -517 Descending FlightAware ADS-B
Sat 02:45:38 PM 22.7860 113.7130 152° Southeast 161 185 3,000 -692 Descending FlightAware ADS-B
Sat 02:46:02 PM 22.7700 113.7210 155° Southeast 156 180 2,700 -750 Descending FlightAware ADS-B
Sat 02:46:26 PM 22.7550 113.7300 151° Southeast 152 175 2,400 -735 Descending FlightAware ADS-B
Sat 02:46:51 PM 22.7390 113.7380 155° Southeast 150 173 2,100 -750 Descending FlightAware ADS-B
Sat 02:47:22 PM 22.7210 113.7490 151° Southeast 150 173 1,700 -837 Descending FlightAware ADS-B
Sat 02:47:34 PM 22.7130 113.7530 155° Southeast 149 171 1,500 -750 Descending FlightAware ADS-B
Sat 02:48:02 PM 22.6960 113.7620 154° Southeast 144 166 1,200 -692 Descending FlightAware ADS-B
Sat 02:48:26 PM 22.6810 113.7700 154° Southeast 142 163 900 -808 Descending FlightAware ADS-B
Sat 02:48:54 PM 22.6650 113.7790 153° Southeast 146 168 500 -692 Descending FlightAware ADS-B
Sat 02:49:18 PM 22.6510 113.7870 152° Southeast 139 160 300 -500 Descending FlightAware ADS-B
Sat 02:49:36 PM 22.6430 113.7910 155° Southeast 65 75 -1,000 Descending FlightAware ADS-B
Sat 02:50:00 PM 22.6380 113.7940 151° Southeast 39 45  Level FlightAware ADS-B
Sat 02:50:12 PM 22.6360 113.7950 155° Southeast 27 31  Level FlightAware ADS-B
Sat 02:50:21 PM 22.6360 113.7960 90° East 23 26  Level FlightAware ADS-B
Sat 02:50:40 PM 22.6350 113.7970 137° Southeast 24 28  Level FlightAware ADS-B
Sat 02:51:07 PM 22.6360 113.7980 43° Northeast 28 32  Level FlightAware ADS-B
Sat 02:51:36 PM 22.6370 113.7990 43° Northeast 16 18  Level FlightAware ADS-B
Sat 02:51:55 PM 22.6370 113.8010 90° East 17 20  Level FlightAware ADS-B
Sat 02:52:36 PM 22.6390 113.8040 54° Northeast 24 28  Level FlightAware ADS-B
Sat 02:53:15 PM 22.6390 113.8050 90° East 28 32  Level FlightAware ADS-B
Sat 02:53:48 PM 22.6400 113.8070 62° Northeast 28 32  Level FlightAware ADS-B
Sat 02:54:15 PM 22.6410 113.8080 43° Northeast 15 17  Level FlightAware ADS-B
Sat 02:54:31 PM 22.6410 113.8090 90° East 24 28  Level FlightAware ADS-B
Sat 02:54:44 PM 22.6420 113.8090 360° North 22 25  Level FlightAware ADS-B
Sat 02:55:12 PM 22.6430 113.8090 360° North 32 37  Level FlightAware ADS-B
Sat 02:55:22 PM 22.6440 113.8090 360° North 32 37  Level FlightAware ADS-B
Sat 02:58:00 PM 22.6395 113.8124 145° Southeast  Level Estimated
Sat 02:59:00 PM 22.6395 113.8124 25° Northeast  Level Estimated
Sat 03:00:00 PM 22.6395 113.8124 25° Northeast  Level Estimated
Sat 03:01:00 PM 22.6395 113.8124 25° Northeast  Level Estimated
Sat 03:02:00 PM 22.6395 113.8124 25° Northeast  Level Estimated
Sat 03:03:00 PM 22.6395 113.8124 25° Northeast  Level Estimated
Sat 03:04:00 PM 22.6395 113.8124 25° Northeast  Level Estimated
Sat 03:05:00 PM 22.6395 113.8124 25° Northeast  Level Estimated
Sat 03:06:00 PM 22.6395 113.8124 25° Northeast  Level Estimated
Sat 03:07:00 PM 22.6395 113.8124 25° Northeast  Level Estimated
Sat 03:08:00 PM 22.6395 113.8124 25° Northeast  Level Estimated
Sat 03:09:00 PM 22.6395 113.8124 25° Northeast  Level Estimated
Sat 03:10:00 PM 22.6395 113.8124 25° Northeast  Level Estimated
Sat 03:11:00 PM 22.6395 113.8124 25° Northeast  Level Estimated
Sat 03:12:00 PM 22.6395 113.8124 25° Northeast  Level Estimated
Sat 03:13:00 PM 22.6395 113.8124 25° Northeast  Level Estimated
Sat 03:14:00 PM 22.6395 113.8124 25° Northeast  Level Estimated
Sat 03:15:00 PM 22.6395 113.8124 25° Northeast  Level Estimated

Login

Don't have an account? Register now (free) for customized features, flight alerts, and more!